createdAt,value
2018-12-22T09:03:29.294Z,8.33
2018-12-22T09:04:29.196Z,8.34
2018-12-22T09:05:29.183Z,8.56
2018-12-22T09:06:29.172Z,8.71
2018-12-22T09:07:29.163Z,8.94
2018-12-22T09:08:29.180Z,9.26
2018-12-22T09:09:29.139Z,9.21
2018-12-22T09:10:29.128Z,9.28
2018-12-22T09:11:29.115Z,9.14
2018-12-22T09:12:29.112Z,9.18
2018-12-22T09:13:29.095Z,9.36
2018-12-22T09:14:29.112Z,9.26
2018-12-22T09:15:29.084Z,9.18
2018-12-22T09:16:29.063Z,9.13
2018-12-22T09:17:29.047Z,9.05
2018-12-22T09:18:29.059Z,9.05
2018-12-22T09:19:29.028Z,8.77
2018-12-22T09:20:37.333Z,8.77
2018-12-22T09:21:29.004Z,8.66
2018-12-22T09:22:28.998Z,8.68
2018-12-22T09:23:28.987Z,8.58
2018-12-22T09:24:28.970Z,8.55
2018-12-22T09:25:29.000Z,8.48
2018-12-22T09:26:36.818Z,8.47
2018-12-22T09:27:28.938Z,8.47
2018-12-22T09:28:28.928Z,8.43
2018-12-22T09:29:29.758Z,8.44
2018-12-22T09:30:38.766Z,8.47
2018-12-22T09:31:28.920Z,8.47
2018-12-22T09:32:28.883Z,8.48
2018-12-22T09:33:28.878Z,8.38
2018-12-22T09:34:28.865Z,8.37
2018-12-22T09:35:28.848Z,8.41
2018-12-22T09:36:28.869Z,8.43
2018-12-22T09:37:28.829Z,8.38
2018-12-22T09:38:28.884Z,8.36
2018-12-22T09:39:28.862Z,8.40
2018-12-22T09:40:28.791Z,8.44
2018-12-22T09:41:28.784Z,8.38
2018-12-22T09:42:28.828Z,8.40
2018-12-22T09:43:28.757Z,8.40
2018-12-22T09:44:28.745Z,8.36
2018-12-22T09:45:28.735Z,8.41
2018-12-22T09:46:28.723Z,8.37
2018-12-22T09:47:28.712Z,8.29
2018-12-22T09:48:28.727Z,8.26
2018-12-22T09:49:28.691Z,8.22
2018-12-22T09:50:28.683Z,8.23
2018-12-22T09:51:28.667Z,8.26
2018-12-22T09:52:28.656Z,8.19
2018-12-22T09:53:28.671Z,8.23
2018-12-22T09:54:28.656Z,8.23
2018-12-22T09:55:28.625Z,8.28
2018-12-22T09:56:28.610Z,8.23
2018-12-22T09:57:28.602Z,8.16
2018-12-22T09:58:28.593Z,8.15
2018-12-22T09:59:28.735Z,8.16
2018-12-22T10:00:28.572Z,8.16
2018-12-22T10:01:28.572Z,8.12
2018-12-22T10:02:28.550Z,8.12
2018-12-22T10:03:28.544Z,8.11
2018-12-22T10:04:28.556Z,8.05
2018-12-22T10:05:28.511Z,8.12
2018-12-22T10:06:28.509Z,8.07
2018-12-22T10:07:28.492Z,8.07
2018-12-22T10:08:28.486Z,8.18
2018-12-22T10:09:28.479Z,8.22
2018-12-22T10:10:28.509Z,8.18
2018-12-22T10:11:28.459Z,8.11
2018-12-22T10:12:28.436Z,8.18
2018-12-22T10:13:28.428Z,8.20
2018-12-22T10:14:28.414Z,8.26
2018-12-22T10:15:28.453Z,8.26
2018-12-22T10:16:28.390Z,8.19
2018-12-22T10:17:28.381Z,8.19
2018-12-22T10:18:28.401Z,8.15
2018-12-22T10:19:28.352Z,8.08
2018-12-22T10:20:28.341Z,8.05
2018-12-22T10:21:28.366Z,8.08
2018-12-22T10:22:28.323Z,8.04
2018-12-22T10:23:28.320Z,8.08
2018-12-22T10:24:28.299Z,8.10
2018-12-22T10:25:28.285Z,8.01
2018-12-22T10:26:28.273Z,8.02
2018-12-22T10:27:28.281Z,7.89
2018-12-22T10:28:28.250Z,7.89
2018-12-22T10:29:28.241Z,7.95
2018-12-22T10:30:28.244Z,8.00
2018-12-22T10:31:28.216Z,7.95
2018-12-22T10:32:28.234Z,7.83
2018-12-22T10:33:28.194Z,7.82
2018-12-22T10:34:28.183Z,7.83
2018-12-22T10:35:28.172Z,7.80
2018-12-22T10:36:28.162Z,7.80
2018-12-22T10:37:28.155Z,7.87
2018-12-22T10:38:28.159Z,7.77
2018-12-22T10:39:28.128Z,7.83
2018-12-22T10:40:28.116Z,7.87
2018-12-22T10:41:28.106Z,7.86
2018-12-22T10:42:28.094Z,7.92
2018-12-22T10:43:28.124Z,7.82
2018-12-22T10:44:28.071Z,7.85
2018-12-22T10:45:28.062Z,7.87
2018-12-22T10:46:28.050Z,7.86
2018-12-22T10:47:28.084Z,7.85
2018-12-22T10:48:28.057Z,7.86
2018-12-22T10:49:28.013Z,7.80
2018-12-22T10:50:28.003Z,7.83
2018-12-22T10:51:27.994Z,7.97
2018-12-22T10:52:27.980Z,7.97
2018-12-22T10:53:27.969Z,7.97
2018-12-22T10:54:28.002Z,7.97
2018-12-22T10:55:27.948Z,7.87
2018-12-22T10:56:27.942Z,7.87
2018-12-22T10:57:27.926Z,7.80
2018-12-22T10:58:27.914Z,7.72
2018-12-22T10:59:27.902Z,7.74
2018-12-22T11:00:27.906Z,7.77
2018-12-22T11:01:27.884Z,7.72
2018-12-22T11:02:27.870Z,7.74
2018-12-22T11:03:27.859Z,7.72
2018-12-22T11:04:27.845Z,7.69
2018-12-22T11:05:27.866Z,7.69
2018-12-22T11:06:27.823Z,7.67
2018-12-22T11:07:27.813Z,7.64
2018-12-22T11:08:27.800Z,7.69
2018-12-22T11:09:27.792Z,7.64
2018-12-22T11:10:27.778Z,7.60
2018-12-22T11:11:27.796Z,7.63
2018-12-22T11:12:27.756Z,7.75
2018-12-22T11:13:27.743Z,7.86
2018-12-22T11:14:27.735Z,7.87
2018-12-22T11:15:27.720Z,7.92
2018-12-22T11:16:27.710Z,7.83
2018-12-22T11:17:27.720Z,7.97
2018-12-22T11:18:27.688Z,7.86
2018-12-22T11:19:27.682Z,7.72
2018-12-22T11:20:27.664Z,7.74
2018-12-22T11:21:27.652Z,7.74
2018-12-22T11:22:27.673Z,7.71
2018-12-22T11:23:27.633Z,7.80
2018-12-22T11:24:27.618Z,7.89
2018-12-22T11:25:27.608Z,7.89
2018-12-22T11:26:27.598Z,7.89
2018-12-22T11:27:27.585Z,7.92
2018-12-22T11:28:27.605Z,7.85
2018-12-22T11:29:27.564Z,7.89
2018-12-22T11:30:27.550Z,7.92
2018-12-22T11:31:34.846Z,7.85
2018-12-22T11:32:28.530Z,7.79
2018-12-22T11:33:27.517Z,7.72
2018-12-22T11:34:27.534Z,7.72
2018-12-22T11:35:27.600Z,7.77
2018-12-22T11:36:27.487Z,7.72
2018-12-22T11:37:27.473Z,7.75
2018-12-22T11:38:27.458Z,7.63
2018-12-22T11:39:27.449Z,7.68
2018-12-22T11:40:27.484Z,7.61
2018-12-22T11:41:27.426Z,7.55
2018-12-22T11:42:27.417Z,7.60
2018-12-22T11:43:27.408Z,7.55
2018-12-22T11:44:27.393Z,7.58
2018-12-22T11:45:27.409Z,7.61
2018-12-22T11:46:27.372Z,7.57
2018-12-22T11:47:27.356Z,7.63
2018-12-22T11:48:27.347Z,7.61
2018-12-22T11:49:27.334Z,7.58
2018-12-22T11:50:27.327Z,7.58
2018-12-22T11:51:27.339Z,7.57
2018-12-22T11:52:27.307Z,7.61
2018-12-22T11:53:27.291Z,7.49
2018-12-22T11:54:27.283Z,7.53
2018-12-22T11:55:27.266Z,7.55
2018-12-22T11:56:27.256Z,7.55
2018-12-22T11:57:27.265Z,7.60
2018-12-22T11:58:27.234Z,7.50
2018-12-22T11:59:27.222Z,7.50
2018-12-22T12:00:27.208Z,7.46
2018-12-22T12:01:27.198Z,7.53
2018-12-22T12:02:27.215Z,7.50
2018-12-22T12:03:27.176Z,7.45
2018-12-22T12:04:27.165Z,7.46
2018-12-22T12:05:27.153Z,7.46
2018-12-22T12:06:27.142Z,7.40
2018-12-22T12:07:27.135Z,7.35
2018-12-22T12:08:27.150Z,7.32
2018-12-22T12:09:27.110Z,7.28
2018-12-22T12:10:27.096Z,7.21
2018-12-22T12:11:27.088Z,7.27
2018-12-22T12:12:27.075Z,7.27
2018-12-22T12:13:27.063Z,7.25
2018-12-22T12:14:27.069Z,7.24
2018-12-22T12:15:27.040Z,7.30
2018-12-22T12:16:27.033Z,7.23
2018-12-22T12:17:27.020Z,7.31
2018-12-22T12:18:27.005Z,7.34
2018-12-22T12:19:27.024Z,7.32
2018-12-22T12:20:27.186Z,7.37
2018-12-22T12:21:26.973Z,7.35
2018-12-22T12:22:26.961Z,7.40
2018-12-22T12:23:26.959Z,7.39
2018-12-22T12:24:26.939Z,7.35
2018-12-22T12:25:26.957Z,7.32
2018-12-22T12:26:26.918Z,7.34
2018-12-22T12:27:26.908Z,7.24
2018-12-22T12:28:26.898Z,7.34
2018-12-22T12:29:26.883Z,7.35
2018-12-22T12:30:26.872Z,7.37
2018-12-22T12:31:26.891Z,7.34
2018-12-22T12:32:26.846Z,7.35
2018-12-22T12:33:26.837Z,7.34
2018-12-22T12:34:26.837Z,7.28
2018-12-22T12:35:26.813Z,7.17
2018-12-22T12:36:26.829Z,7.06
2018-12-22T12:37:26.789Z,7.06
2018-12-22T12:38:26.779Z,6.95
2018-12-22T12:39:26.767Z,6.98
2018-12-22T12:40:26.763Z,6.88
2018-12-22T12:41:26.744Z,6.91
2018-12-22T12:42:26.753Z,6.94
2018-12-22T12:43:26.723Z,6.94
2018-12-22T12:44:26.710Z,6.91
2018-12-22T12:45:26.701Z,6.88
2018-12-22T12:46:26.689Z,6.77
2018-12-22T12:47:26.700Z,6.84
2018-12-22T12:48:26.667Z,6.85
2018-12-22T12:49:26.654Z,6.77
2018-12-22T12:50:26.647Z,6.87
2018-12-22T12:51:26.632Z,6.80
2018-12-22T12:52:26.650Z,6.92
2018-12-22T12:53:26.611Z,6.92
2018-12-22T12:54:26.597Z,6.89
2018-12-22T12:55:26.599Z,6.94
2018-12-22T12:56:26.584Z,6.95
2018-12-22T12:57:27.201Z,6.97
2018-12-22T12:58:26.583Z,7.03
2018-12-22T12:59:26.541Z,6.95
2018-12-22T13:00:26.532Z,6.89
2018-12-22T13:01:26.518Z,6.85
2018-12-22T13:02:26.510Z,6.81
2018-12-22T13:03:26.498Z,6.81
2018-12-22T13:04:26.507Z,6.81
2018-12-22T13:05:26.473Z,6.95
2018-12-22T13:06:26.468Z,6.89
2018-12-22T13:07:26.451Z,6.99
2018-12-22T13:08:26.441Z,6.97
2018-12-22T13:09:26.644Z,7.09
2018-12-22T13:10:26.416Z,7.10
2018-12-22T13:11:26.404Z,7.15
2018-12-22T13:12:26.396Z,7.20
2018-12-22T13:13:26.383Z,7.20
2018-12-22T13:14:26.373Z,7.16
2018-12-22T13:15:26.381Z,7.30
2018-12-22T13:16:26.350Z,7.25
2018-12-22T13:17:26.338Z,7.24
2018-12-22T13:18:26.327Z,7.30
2018-12-22T13:19:26.317Z,7.34
2018-12-22T13:20:26.336Z,7.35
2018-12-22T13:21:26.292Z,7.28
2018-12-22T13:22:26.282Z,7.24
2018-12-22T13:23:26.273Z,7.34
2018-12-22T13:24:26.262Z,7.20
2018-12-22T13:25:26.245Z,7.24
2018-12-22T13:26:26.254Z,7.25
2018-12-22T13:27:26.227Z,7.27
2018-12-22T13:28:26.213Z,7.35
2018-12-22T13:29:26.205Z,7.24
2018-12-22T13:30:26.195Z,7.24
2018-12-22T13:31:26.206Z,7.35
2018-12-22T13:32:26.168Z,7.31
2018-12-22T13:33:26.160Z,7.31
2018-12-22T13:34:26.146Z,7.37
2018-12-22T13:35:26.137Z,7.27
2018-12-22T13:36:34.290Z,7.23
2018-12-22T13:37:27.126Z,7.12
2018-12-22T13:38:26.099Z,7.10
2018-12-22T13:39:26.087Z,7.03
2018-12-22T13:40:26.075Z,6.95
2018-12-22T13:41:26.066Z,6.92
2018-12-22T13:42:26.073Z,6.95
2018-12-22T13:43:26.042Z,6.97
2018-12-22T13:44:26.031Z,6.91
2018-12-22T13:45:26.020Z,6.95
2018-12-22T13:46:26.008Z,6.94
2018-12-22T13:47:26.038Z,6.94
2018-12-22T13:48:26.079Z,6.98
2018-12-22T13:49:26.204Z,7.05
2018-12-22T13:50:26.146Z,7.09
2018-12-22T13:51:26.089Z,7.07
2018-12-22T13:52:27.377Z,7.06
2018-12-22T13:53:25.945Z,7.09
2018-12-22T13:54:25.921Z,7.09
2018-12-22T13:55:25.908Z,7.10
2018-12-22T13:56:25.895Z,7.09
2018-12-22T13:57:25.884Z,7.09
2018-12-22T13:58:25.890Z,7.13
2018-12-22T13:59:25.864Z,7.16
2018-12-22T14:00:25.849Z,7.17
2018-12-22T14:01:25.839Z,7.23
2018-12-22T14:02:25.827Z,7.25
2018-12-22T14:03:25.833Z,7.27
2018-12-22T14:04:25.806Z,7.32
2018-12-22T14:05:25.794Z,7.30
2018-12-22T14:06:25.781Z,7.28
2018-12-22T14:07:25.773Z,7.23
2018-12-22T14:08:25.778Z,7.24
2018-12-22T14:09:25.746Z,7.31
2018-12-22T14:10:25.735Z,7.28
2018-12-22T14:11:25.729Z,7.34
2018-12-22T14:12:25.715Z,7.34
2018-12-22T14:13:25.723Z,7.30
2018-12-22T14:14:25.690Z,7.31
2018-12-22T14:15:25.679Z,7.34
2018-12-22T14:16:25.670Z,7.24
2018-12-22T14:17:25.665Z,7.32
2018-12-22T14:18:25.664Z,7.34
2018-12-22T14:19:25.642Z,7.32
2018-12-22T14:20:25.626Z,7.34
2018-12-22T14:21:25.612Z,7.32
2018-12-22T14:22:25.601Z,7.34
2018-12-22T14:23:25.609Z,7.35
2018-12-22T14:24:25.578Z,7.31
2018-12-22T14:25:25.567Z,7.37
2018-12-22T14:26:25.557Z,7.34
2018-12-22T14:27:25.552Z,7.35
2018-12-22T14:28:25.548Z,7.39
2018-12-22T14:29:25.535Z,7.40
2018-12-22T14:30:25.529Z,7.39
2018-12-22T14:31:25.499Z,7.35
2018-12-22T14:32:27.040Z,7.39
2018-12-22T14:33:25.494Z,7.34
2018-12-22T14:34:25.464Z,7.32
2018-12-22T14:35:25.460Z,7.34
2018-12-22T14:36:25.442Z,7.34
2018-12-22T14:37:25.432Z,7.34
2018-12-22T14:38:25.436Z,7.37
2018-12-22T14:39:25.435Z,7.35
2018-12-22T14:40:25.401Z,7.31
2018-12-22T14:41:25.386Z,7.34
2018-12-22T14:42:25.377Z,7.35
2018-12-22T14:43:25.391Z,7.48
2018-12-22T14:44:25.355Z,7.52
2018-12-22T14:45:25.339Z,7.37
2018-12-22T14:46:25.327Z,7.40
2018-12-22T14:47:25.315Z,7.35
2018-12-22T14:48:25.324Z,7.35
2018-12-22T14:49:25.293Z,7.35
2018-12-22T14:50:25.285Z,7.32
2018-12-22T14:51:25.272Z,7.40
2018-12-22T14:52:25.261Z,7.37
2018-12-22T14:53:25.283Z,7.39
2018-12-22T14:54:25.247Z,7.32
2018-12-22T14:55:25.227Z,7.37
2018-12-22T14:56:25.215Z,7.37
2018-12-22T14:57:25.205Z,7.32
2018-12-22T14:58:25.208Z,7.39
2018-12-22T14:59:25.183Z,7.42
2018-12-22T15:00:25.170Z,7.35
2018-12-22T15:01:25.158Z,7.35
2018-12-22T15:02:25.146Z,7.32
2018-12-22T15:03:25.152Z,7.34
2018-12-22T15:04:25.125Z,7.37
2018-12-22T15:05:25.112Z,7.31
2018-12-22T15:06:25.103Z,7.35
2018-12-22T15:07:25.092Z,7.28
2018-12-22T15:08:25.099Z,7.31
2018-12-22T15:09:25.067Z,7.32
2018-12-22T15:10:25.055Z,7.34
2018-12-22T15:11:25.043Z,7.34
2018-12-22T15:12:25.049Z,7.34
2018-12-22T15:13:25.038Z,7.25
2018-12-22T15:14:25.012Z,7.34
2018-12-22T15:15:25.002Z,7.37
2018-12-22T15:16:24.987Z,7.34
2018-12-22T15:17:24.980Z,7.30
2018-12-22T15:18:24.980Z,7.37
2018-12-22T15:19:24.955Z,7.34
2018-12-22T15:20:24.945Z,7.37
2018-12-22T15:21:24.934Z,7.39
2018-12-22T15:22:24.918Z,7.35
2018-12-22T15:23:24.927Z,7.37
2018-12-22T15:24:24.896Z,7.35
2018-12-22T15:25:24.885Z,7.39
2018-12-22T15:26:24.876Z,7.39
2018-12-22T15:27:24.864Z,7.35
2018-12-22T15:28:24.868Z,7.40
2018-12-22T15:29:24.840Z,7.40
2018-12-22T15:30:24.831Z,7.45
2018-12-22T15:31:24.827Z,7.46
2018-12-22T15:32:24.807Z,7.55
2018-12-22T15:33:24.811Z,7.35
2018-12-22T15:34:24.783Z,7.46
2018-12-22T15:35:24.771Z,7.40
2018-12-22T15:36:24.775Z,7.50
2018-12-22T15:37:24.751Z,7.49
2018-12-22T15:38:24.755Z,7.50
2018-12-22T15:39:24.729Z,7.50
2018-12-22T15:40:24.716Z,7.46
2018-12-22T15:41:24.705Z,7.50
2018-12-22T15:42:24.692Z,7.49
2018-12-22T15:43:24.696Z,7.50
2018-12-22T15:44:24.670Z,7.52
2018-12-22T15:45:24.659Z,7.50
2018-12-22T15:46:24.647Z,7.49
2018-12-22T15:47:24.636Z,7.52
2018-12-22T15:48:24.638Z,7.49
2018-12-22T15:49:24.612Z,7.48
2018-12-22T15:50:24.602Z,7.57
2018-12-22T15:51:24.590Z,7.53
2018-12-22T15:52:24.580Z,7.49
2018-12-22T15:53:24.583Z,7.48
2018-12-22T15:54:24.561Z,7.49
2018-12-22T15:55:24.547Z,7.58
2018-12-22T15:56:24.535Z,7.49
2018-12-22T15:57:24.523Z,7.57
2018-12-22T15:58:24.530Z,7.50
2018-12-22T15:59:24.499Z,7.57
2018-12-22T16:00:24.487Z,7.48
2018-12-22T16:01:24.483Z,7.55
2018-12-22T16:02:24.463Z,7.55
2018-12-22T16:03:24.471Z,7.60
2018-12-22T16:04:24.442Z,7.50
2018-12-22T16:05:24.432Z,7.50
2018-12-22T16:06:24.416Z,7.52
2018-12-22T16:07:24.408Z,7.58
2018-12-22T16:08:24.420Z,7.57
2018-12-22T16:09:24.384Z,7.52
2018-12-22T16:10:24.373Z,7.55
2018-12-22T16:11:24.367Z,7.52
2018-12-22T16:12:24.354Z,7.48
2018-12-22T16:13:24.360Z,7.46
2018-12-22T16:14:24.327Z,7.52
2018-12-22T16:15:24.317Z,7.52
2018-12-22T16:16:24.309Z,7.48
2018-12-22T16:17:24.294Z,7.49
2018-12-22T16:18:24.298Z,7.49
2018-12-22T16:19:24.273Z,7.46
2018-12-22T16:20:24.261Z,7.48
2018-12-22T16:21:24.248Z,7.53
2018-12-22T16:22:24.239Z,7.50
2018-12-22T16:23:24.245Z,7.35
2018-12-22T16:24:24.214Z,7.50
2018-12-22T16:25:24.203Z,7.53
2018-12-22T16:26:24.191Z,7.39
2018-12-22T16:27:24.179Z,7.46
2018-12-22T16:28:24.195Z,7.45
2018-12-22T16:29:24.156Z,7.52
2018-12-22T16:30:24.254Z,7.48
2018-12-22T16:31:24.134Z,7.53
2018-12-22T16:32:24.123Z,7.57
2018-12-22T16:33:24.131Z,7.49
2018-12-22T16:34:24.107Z,7.49
2018-12-22T16:35:24.088Z,7.58
2018-12-22T16:36:24.078Z,7.58
2018-12-22T16:37:24.065Z,7.57
2018-12-22T16:38:24.073Z,7.52
2018-12-22T16:39:24.046Z,7.53
2018-12-22T16:40:24.032Z,7.58
2018-12-22T16:41:24.021Z,7.55
2018-12-22T16:42:24.009Z,7.61
2018-12-22T16:43:24.020Z,7.55
2018-12-22T16:44:23.988Z,7.55
2018-12-22T16:45:23.975Z,7.58
2018-12-22T16:46:23.966Z,7.55
2018-12-22T16:47:23.952Z,7.60
2018-12-22T16:48:23.962Z,7.50
2018-12-22T16:49:23.931Z,7.55
2018-12-22T16:50:23.921Z,7.52
2018-12-22T16:51:23.908Z,7.48
2018-12-22T16:52:23.901Z,7.55
2018-12-22T16:53:23.905Z,7.48
2018-12-22T16:54:23.876Z,7.48
2018-12-22T16:55:23.864Z,7.50
2018-12-22T16:56:23.851Z,7.39
2018-12-22T16:57:23.840Z,7.52
2018-12-22T16:58:23.850Z,7.48
2018-12-22T16:59:23.816Z,7.39
2018-12-22T17:00:23.806Z,7.50
2018-12-22T17:01:23.792Z,7.50
2018-12-22T17:02:23.786Z,7.52
2018-12-22T17:03:23.791Z,7.48
2018-12-22T17:04:23.762Z,7.53
2018-12-22T17:05:23.749Z,7.52
2018-12-22T17:06:23.739Z,7.49
2018-12-22T17:07:23.725Z,7.50
2018-12-22T17:08:23.735Z,7.53
2018-12-22T17:09:23.708Z,7.49
2018-12-22T17:10:23.700Z,7.50
2018-12-22T17:11:23.682Z,7.52
2018-12-22T17:12:23.669Z,7.49
2018-12-22T17:13:23.674Z,7.37
2018-12-22T17:14:23.645Z,7.52
2018-12-22T17:15:23.930Z,7.53
2018-12-22T17:16:23.633Z,7.40
2018-12-22T17:17:23.612Z,7.37
2018-12-22T17:18:23.617Z,7.50
2018-12-22T17:19:23.588Z,7.52
2018-12-22T17:20:23.578Z,7.50
2018-12-22T17:21:23.567Z,7.48
2018-12-22T17:22:23.572Z,7.49
2018-12-22T17:23:23.575Z,7.52
2018-12-22T17:24:23.533Z,7.50
2018-12-22T17:25:23.520Z,7.52
2018-12-22T17:26:23.509Z,7.50
2018-12-22T17:27:23.501Z,7.60
2018-12-22T17:28:28.189Z,7.52
2018-12-22T17:29:24.475Z,7.55
2018-12-22T17:30:23.464Z,7.55
2018-12-22T17:31:23.452Z,7.60
2018-12-22T17:32:23.444Z,7.60
2018-12-22T17:33:23.435Z,7.57
2018-12-22T17:34:23.443Z,7.55
2018-12-22T17:35:23.408Z,7.60
2018-12-22T17:36:25.414Z,7.61
2018-12-22T17:37:23.384Z,7.58
2018-12-22T17:38:23.376Z,7.57
2018-12-22T17:39:23.383Z,7.57
2018-12-22T17:40:23.352Z,7.67
2018-12-22T17:41:23.341Z,7.60
2018-12-22T17:42:23.332Z,7.61
2018-12-22T17:43:23.317Z,7.63
2018-12-22T17:44:23.327Z,7.64
2018-12-22T17:45:23.295Z,7.67
2018-12-22T17:46:23.288Z,7.63
2018-12-22T17:47:23.271Z,7.61
2018-12-22T17:48:23.261Z,7.57
2018-12-22T17:49:23.265Z,7.53
2018-12-22T17:50:23.240Z,7.57
2018-12-22T17:51:23.229Z,7.57
2018-12-22T17:52:23.216Z,7.57
2018-12-22T17:53:23.458Z,7.61
2018-12-22T17:54:23.217Z,7.69
2018-12-22T17:55:23.185Z,7.61
2018-12-22T17:56:23.171Z,7.63
2018-12-22T17:57:23.162Z,7.75
2018-12-22T17:58:23.150Z,7.71
2018-12-22T17:59:23.154Z,7.77
2018-12-22T18:00:23.129Z,7.75
2018-12-22T18:01:23.119Z,7.75
2018-12-22T18:02:23.108Z,7.75
2018-12-22T18:03:27.358Z,7.75
2018-12-22T18:04:23.080Z,7.83
2018-12-22T18:05:23.068Z,7.85
2018-12-22T18:06:23.056Z,7.89
2018-12-22T18:07:23.046Z,7.75
2018-12-22T18:08:23.050Z,7.82
2018-12-22T18:09:23.021Z,7.80
2018-12-22T18:10:23.012Z,7.89
2018-12-22T18:11:23.000Z,7.85
2018-12-22T18:12:22.990Z,7.87
2018-12-22T18:13:23.004Z,7.90
2018-12-22T18:14:22.965Z,7.89
2018-12-22T18:15:22.953Z,7.89
2018-12-22T18:16:22.943Z,7.77
2018-12-22T18:17:22.933Z,7.83
2018-12-22T18:18:22.922Z,7.80
2018-12-22T18:19:22.924Z,7.77
2018-12-22T18:20:22.897Z,7.75
2018-12-22T18:21:22.890Z,7.86
2018-12-22T18:22:22.876Z,7.71
2018-12-22T18:23:22.868Z,7.71
2018-12-22T18:24:22.880Z,7.83
2018-12-22T18:25:22.841Z,7.77
2018-12-22T18:26:22.830Z,7.86
2018-12-22T18:27:22.819Z,7.83
2018-12-22T18:28:22.810Z,7.86
2018-12-22T18:29:22.796Z,7.75
2018-12-22T18:30:22.805Z,7.75
2018-12-22T18:31:22.775Z,7.79
2018-12-22T18:32:22.761Z,7.72
2018-12-22T18:33:22.751Z,7.89
2018-12-22T18:34:22.739Z,7.90
2018-12-22T18:35:22.756Z,7.86
2018-12-22T18:36:22.719Z,7.89
2018-12-22T18:37:22.705Z,7.79
2018-12-22T18:38:22.692Z,7.87
2018-12-22T18:39:23.339Z,7.85
2018-12-22T18:40:22.671Z,7.92
2018-12-22T18:41:22.675Z,7.89
2018-12-22T18:42:22.647Z,7.85
2018-12-22T18:43:22.636Z,7.87
2018-12-22T18:44:22.626Z,7.83
2018-12-22T18:45:22.617Z,7.85
2018-12-22T18:46:22.630Z,7.90
2018-12-22T18:47:22.591Z,7.82
2018-12-22T18:48:22.581Z,7.83
2018-12-22T18:49:22.571Z,7.86
2018-12-22T18:50:22.557Z,7.83
2018-12-22T18:51:22.546Z,7.89
2018-12-22T18:52:22.555Z,7.86
2018-12-22T18:53:22.524Z,7.85
2018-12-22T18:54:22.512Z,7.90
2018-12-22T18:55:22.498Z,7.80
2018-12-22T18:56:22.494Z,7.92
2018-12-22T18:57:22.508Z,7.86
2018-12-22T18:58:22.467Z,7.89
2018-12-22T18:59:22.459Z,7.85
2018-12-22T19:00:22.542Z,7.87
2018-12-22T19:01:22.432Z,7.86
2018-12-22T19:02:22.423Z,7.72
2018-12-22T19:03:22.432Z,7.86
2018-12-22T19:04:22.399Z,7.77
2018-12-22T19:05:22.386Z,7.89
2018-12-22T19:06:22.379Z,7.85
2018-12-22T19:07:22.372Z,7.79
2018-12-22T19:08:22.383Z,7.80
2018-12-22T19:09:22.344Z,7.85
2018-12-22T19:10:22.330Z,7.74
2018-12-22T19:11:22.323Z,7.79
2018-12-22T19:12:22.391Z,7.90
2018-12-22T19:13:22.358Z,7.83
2018-12-22T19:14:22.301Z,7.93
2018-12-22T19:15:22.273Z,7.74
2018-12-22T19:16:22.263Z,7.80
2018-12-22T19:17:22.257Z,7.82
2018-12-22T19:18:22.246Z,7.82
2018-12-22T19:19:22.248Z,7.86
2018-12-22T19:20:22.217Z,7.90
2018-12-22T19:21:22.215Z,7.79
2018-12-22T19:22:22.201Z,7.79
2018-12-22T19:23:22.186Z,7.87
2018-12-22T19:24:22.196Z,7.90
2018-12-22T19:25:22.161Z,7.85
2018-12-22T19:26:22.148Z,7.82
2018-12-22T19:27:22.138Z,7.80
2018-12-22T19:28:22.125Z,7.89
2018-12-22T19:29:22.132Z,7.92
2018-12-22T19:30:22.101Z,7.82
2018-12-22T19:31:22.095Z,7.79
2018-12-22T19:32:22.081Z,7.89
2018-12-22T19:33:22.067Z,7.92
2018-12-22T19:34:22.081Z,7.83
2018-12-22T19:35:22.045Z,7.80
2018-12-22T19:36:22.034Z,7.86
2018-12-22T19:37:22.022Z,7.92
2018-12-22T19:38:22.011Z,7.85
2018-12-22T19:39:22.014Z,7.80
2018-12-22T19:40:21.988Z,7.90
2018-12-22T19:41:21.979Z,7.92
2018-12-22T19:42:21.964Z,7.82
2018-12-22T19:43:21.959Z,7.89
2018-12-22T19:44:21.963Z,7.90
2018-12-22T19:45:21.936Z,7.87
2018-12-22T19:46:21.923Z,7.89
2018-12-22T19:47:21.910Z,7.87
2018-12-22T19:48:21.899Z,7.87
2018-12-22T19:49:21.909Z,7.86
2018-12-22T19:50:21.877Z,7.86
2018-12-22T19:51:21.863Z,7.83
2018-12-22T19:52:21.856Z,7.87
2018-12-22T19:53:21.843Z,7.86
2018-12-22T19:54:21.845Z,7.80
2018-12-22T19:55:21.821Z,7.87
2018-12-22T19:56:21.807Z,7.85
2018-12-22T19:57:21.796Z,7.82
2018-12-22T19:58:21.783Z,7.85
2018-12-22T19:59:21.791Z,7.86
2018-12-22T20:00:21.760Z,7.93
2018-12-22T20:01:21.753Z,7.83
2018-12-22T20:02:21.741Z,7.79
2018-12-22T20:03:21.728Z,7.85
2018-12-22T20:04:21.737Z,7.83
2018-12-22T20:05:21.705Z,7.82
2018-12-22T20:06:21.699Z,7.83
2018-12-22T20:07:21.681Z,7.92
2018-12-22T20:08:21.671Z,7.90
2018-12-22T20:09:21.678Z,7.87
2018-12-22T20:10:21.648Z,7.90
2018-12-22T20:11:21.637Z,7.77
2018-12-22T20:12:21.626Z,7.82
2018-12-22T20:13:21.615Z,7.83
2018-12-22T20:14:21.624Z,7.86
2018-12-22T20:15:21.589Z,7.79
2018-12-22T20:16:21.580Z,7.82
2018-12-22T20:17:21.569Z,7.90
2018-12-22T20:18:21.558Z,7.90
2018-12-22T20:19:21.563Z,7.86
2018-12-22T20:20:21.533Z,7.86
2018-12-22T20:21:21.523Z,7.82
2018-12-22T20:22:21.511Z,7.89
2018-12-22T20:23:21.500Z,7.83
2018-12-22T20:24:21.505Z,7.86
2018-12-22T20:25:21.478Z,7.86
2018-12-22T20:26:21.467Z,7.87
2018-12-22T20:27:21.456Z,7.83
2018-12-22T20:28:21.445Z,7.89
2018-12-22T20:29:21.450Z,7.87
2018-12-22T20:30:21.425Z,7.90
2018-12-22T20:31:21.411Z,7.86
2018-12-22T20:32:21.399Z,7.86
2018-12-22T20:33:21.391Z,7.83
2018-12-22T20:34:21.395Z,7.87
2018-12-22T20:35:21.364Z,7.82
2018-12-22T20:36:21.354Z,7.85
2018-12-22T20:37:21.343Z,7.82
2018-12-22T20:38:21.332Z,7.87
2018-12-22T20:39:21.340Z,7.82
2018-12-22T20:40:21.309Z,7.86
2018-12-22T20:41:21.299Z,7.86
2018-12-22T20:42:21.288Z,7.85
2018-12-22T20:43:21.273Z,7.80
2018-12-22T20:44:21.280Z,7.77
2018-12-22T20:45:21.254Z,7.83
2018-12-22T20:46:21.241Z,7.74
2018-12-22T20:47:21.229Z,7.86
2018-12-22T20:48:21.223Z,7.87
2018-12-22T20:49:21.231Z,7.85
2018-12-22T20:50:21.197Z,7.86
2018-12-22T20:51:21.186Z,7.83
2018-12-22T20:52:21.173Z,7.85
2018-12-22T20:53:21.162Z,7.69
2018-12-22T20:54:21.168Z,7.83
2018-12-22T20:55:21.139Z,7.86
2018-12-22T20:56:21.136Z,7.92
2018-12-22T20:57:21.117Z,7.85
2018-12-22T20:58:21.106Z,7.83
2018-12-22T20:59:21.110Z,7.86
2018-12-22T21:00:21.083Z,7.82
2018-12-22T21:01:21.075Z,7.93
2018-12-22T21:02:21.066Z,7.90
2018-12-22T21:03:21.068Z,7.93
2018-12-22T21:04:21.037Z,7.79
2018-12-22T21:05:21.027Z,7.87
2018-12-22T21:06:21.015Z,7.89
2018-12-22T21:07:21.002Z,7.92
2018-12-22T21:08:21.039Z,7.79
2018-12-22T21:09:20.983Z,7.87
2018-12-22T21:10:20.975Z,7.80
2018-12-22T21:11:20.960Z,7.77
2018-12-22T21:12:20.948Z,7.85
2018-12-22T21:13:20.938Z,7.85
2018-12-22T21:14:20.947Z,7.85
2018-12-22T21:15:20.915Z,7.87
2018-12-22T21:16:20.904Z,7.89
2018-12-22T21:17:20.888Z,7.77
2018-12-22T21:18:20.879Z,7.93
2018-12-22T21:19:20.888Z,7.95
2018-12-22T21:20:20.857Z,7.79
2018-12-22T21:21:20.845Z,7.83
2018-12-22T21:22:20.833Z,7.90
2018-12-22T21:23:20.841Z,7.90
2018-12-22T21:24:20.816Z,7.93
2018-12-22T21:25:20.800Z,7.77
2018-12-22T21:26:20.788Z,7.77
2018-12-22T21:27:20.813Z,7.86
2018-12-22T21:28:20.784Z,7.92
2018-12-22T21:29:20.788Z,7.89
2018-12-22T21:30:20.745Z,7.89
2018-12-22T21:31:20.745Z,7.77
2018-12-22T21:32:20.719Z,7.86
2018-12-22T21:33:20.748Z,7.89
2018-12-22T21:34:28.173Z,7.90
2018-12-22T21:35:21.685Z,7.89
2018-12-22T21:36:20.675Z,7.86
2018-12-22T21:37:20.680Z,7.80
2018-12-22T21:38:20.671Z,7.87
2018-12-22T21:39:20.642Z,7.80
2018-12-22T21:40:20.630Z,7.83
2018-12-22T21:41:20.617Z,7.83
2018-12-22T21:42:20.607Z,7.80
2018-12-22T21:43:20.612Z,7.82
2018-12-22T21:44:20.584Z,7.82
2018-12-22T21:45:20.573Z,7.85
2018-12-22T21:46:20.563Z,7.89
2018-12-22T21:47:20.552Z,7.82
2018-12-22T21:48:20.558Z,7.80
2018-12-22T21:49:20.527Z,7.93
2018-12-22T21:50:20.514Z,7.86
2018-12-22T21:51:20.509Z,7.77
2018-12-22T21:52:20.493Z,7.87
2018-12-22T21:53:20.500Z,7.82
2018-12-22T21:54:20.470Z,7.89
2018-12-22T21:55:20.459Z,7.86
2018-12-22T21:56:20.449Z,7.90
2018-12-22T21:57:20.439Z,7.86
2018-12-22T21:58:20.445Z,7.85
2018-12-22T21:59:20.414Z,7.87
2018-12-22T22:00:20.402Z,7.85
2018-12-22T22:01:20.393Z,7.79
2018-12-22T22:02:20.383Z,7.87
2018-12-22T22:03:20.387Z,7.85
2018-12-22T22:04:20.359Z,7.86
2018-12-22T22:05:20.349Z,7.79
2018-12-22T22:06:20.335Z,7.85
2018-12-22T22:07:20.324Z,7.93
2018-12-22T22:08:20.327Z,7.86
2018-12-22T22:09:20.301Z,7.85
2018-12-22T22:10:20.293Z,7.83
2018-12-22T22:11:20.278Z,7.89
2018-12-22T22:12:20.268Z,7.89
2018-12-22T22:13:20.274Z,7.90
2018-12-22T22:14:20.244Z,7.83
2018-12-22T22:15:20.237Z,7.90
2018-12-22T22:16:20.223Z,7.80
2018-12-22T22:17:20.216Z,7.75
2018-12-22T22:18:20.217Z,7.90
2018-12-22T22:19:20.190Z,7.87
2018-12-22T22:20:20.176Z,7.87
2018-12-22T22:21:20.166Z,7.87